Home > Products > Valid Products > TAF

000
FTUS43 KGID 230520
TAFGRI
TAF
KGRI 230520Z 2306/2406 16008KT P6SM -RA VCTS BKN050CB
     FM230900 16010KT P6SM -RA BKN035
     FM231600 16014G20KT P6SM BKN040
     FM240100 16012KT P6SM BKN080=



000
FTUS43 KGID 230520
TAFGRI
TAF
KGRI 230520Z 2306/2406 16008KT P6SM -RA VCTS BKN050CB
     FM230900 16010KT P6SM -RA BKN035
     FM231600 16014G20KT P6SM BKN040
     FM240100 16012KT P6SM BKN080=



000
FTUS43 KGID 222336
TAFGRI
TAF
KGRI 222336Z 2300/2324 15011KT P6SM BKN100
     FM230130 15011KT P6SM -RA BKN050
     FM230900 15011KT P6SM -RA BKN025
     FM231600 15014G19KT P6SM BKN040=



000
FTUS43 KGID 222336
TAFGRI
TAF
KGRI 222336Z 2300/2324 15011KT P6SM BKN100
     FM230130 15011KT P6SM -RA BKN050
     FM230900 15011KT P6SM -RA BKN025
     FM231600 15014G19KT P6SM BKN040=



000
FTUS43 KGID 221720
TAFGRI
TAF
KGRI 221720Z 2218/2318 18012KT P6SM SCT250
     FM230100 16008KT P6SM VCSH BKN050 BKN080
     FM230600 15010KT 5SM -RA SCT010 BKN030
     FM231400 18012G18KT 6SM -SHRA SCT010 BKN030=



000
FTUS43 KGID 221720
TAFGRI
TAF
KGRI 221720Z 2218/2318 18012KT P6SM SCT250
     FM230100 16008KT P6SM VCSH BKN050 BKN080
     FM230600 15010KT 5SM -RA SCT010 BKN030
     FM231400 18012G18KT 6SM -SHRA SCT010 BKN030=



000
FTUS43 KGID 221120
TAFGRI
TAF
KGRI 221120Z 2212/2312 VRB03KT P6SM SCT250
     FM221400 18012KT P6SM SCT080 BKN250
     FM230100 16008KT P6SM VCSH BKN050 BKN080
     FM230600 15010KT 5SM -RA SCT010 BKN030=



000
FTUS43 KGID 221120
TAFGRI
TAF
KGRI 221120Z 2212/2312 VRB03KT P6SM SCT250
     FM221400 18012KT P6SM SCT080 BKN250
     FM230100 16008KT P6SM VCSH BKN050 BKN080
     FM230600 15010KT 5SM -RA SCT010 BKN030=



000
FTUS43 KGID 220531
TAFGRI
TAF
KGRI 220531Z 2206/2306 VRB03KT P6SM SCT250
     FM221400 18012KT P6SM SCT080 BKN250
     FM230100 16008KT P6SM VCSH BKN050 BKN080=



000
FTUS43 KGID 220531
TAFGRI
TAF
KGRI 220531Z 2206/2306 VRB03KT P6SM SCT250
     FM221400 18012KT P6SM SCT080 BKN250
     FM230100 16008KT P6SM VCSH BKN050 BKN080=



000
FTUS43 KGID 212320
TAFGRI
TAF
KGRI 212320Z 2200/2224 VRB05KT P6SM SKC
     FM221400 19009KT P6SM SCT080
     FM222000 20010KT P6SM BKN080=



000
FTUS43 KGID 212320
TAFGRI
TAF
KGRI 212320Z 2200/2224 VRB05KT P6SM SKC
     FM221400 19009KT P6SM SCT080
     FM222000 20010KT P6SM BKN080=



000
FTUS43 KGID 211720
TAFGRI
TAF
KGRI 211720Z 2118/2218 36011G16KT P6SM SKC
     FM212200 01009KT P6SM SKC
     FM220100 VRB04KT P6SM SKC
     FM221400 19009KT P6SM SCT080=



000
FTUS43 KGID 211720
TAFGRI
TAF
KGRI 211720Z 2118/2218 36011G16KT P6SM SKC
     FM212200 01009KT P6SM SKC
     FM220100 VRB04KT P6SM SKC
     FM221400 19009KT P6SM SCT080=



000
FTUS43 KGID 211120
TAFGRI
TAF
KGRI 211120Z 2112/2212 33006KT P6SM SKC
     FM211600 35010KT P6SM SKC
     FM220000 VRB03KT P6SM SKC=



000
FTUS43 KGID 211120
TAFGRI
TAF
KGRI 211120Z 2112/2212 33006KT P6SM SKC
     FM211600 35010KT P6SM SKC
     FM220000 VRB03KT P6SM SKC=



000
FTUS43 KGID 210525
TAFGRI
TAF
KGRI 210525Z 2106/2206 33006KT P6SM SKC
     FM211600 35010KT P6SM SKC
     FM220000 VRB03KT P6SM SKC=



000
FTUS43 KGID 210525
TAFGRI
TAF
KGRI 210525Z 2106/2206 33006KT P6SM SKC
     FM211600 35010KT P6SM SKC
     FM220000 VRB03KT P6SM SKC=



000
FTUS43 KGID 202323
TAFGRI
TAF
KGRI 202323Z 2100/2124 33006KT P6SM SKC
     FM211600 35010KT P6SM FEW150=



000
FTUS43 KGID 202323
TAFGRI
TAF
KGRI 202323Z 2100/2124 33006KT P6SM SKC
     FM211600 35010KT P6SM FEW150=



000
FTUS43 KGID 201720
TAFGRI
TAF
KGRI 201720Z 2018/2118 02008KT P6SM FEW150
     FM202200 33007KT P6SM FEW150=



000
FTUS43 KGID 201720
TAFGRI
TAF
KGRI 201720Z 2018/2118 02008KT P6SM FEW150
     FM202200 33007KT P6SM FEW150=



000
FTUS43 KGID 201533 AAA
TAFGRI
TAF AMD
KGRI 201533Z 2016/2112 02010KT P6SM FEW150
     FM202200 33007KT P6SM FEW150=



000
FTUS43 KGID 201533 AAA
TAFGRI
TAF AMD
KGRI 201533Z 2016/2112 02010KT P6SM FEW150
     FM202200 33007KT P6SM FEW150=



000
FTUS43 KGID 201120
TAFGRI
TAF
KGRI 201120Z 2012/2112 VRB05KT P6SM SCT150 WS006/25040KT
     FM201330 36012KT P6SM SCT150
     FM202300 33007KT P6SM FEW150=



000
FTUS43 KGID 201120
TAFGRI
TAF
KGRI 201120Z 2012/2112 VRB05KT P6SM SCT150 WS006/25040KT
     FM201330 36012KT P6SM SCT150
     FM202300 33007KT P6SM FEW150=



    US Dept of Commerce
    National Oceanic and Atmospheric Administration
    National Weather Service
    1325 East West Highway
    Silver Spring, MD 20910
    Page Author: NWS Internet Services Team
Disclaimer
Information Quality
Credits
Glossary
Privacy Policy
Freedom of Information Act (FOIA)
About Us
Career Opportunities